createdAt,value
2017-10-04T00:00:28.741Z,0
2017-10-04T00:01:28.768Z,0
2017-10-04T00:02:29.319Z,0
2017-10-04T00:03:29.261Z,0
2017-10-04T00:04:29.009Z,0
2017-10-04T00:05:28.628Z,0
2017-10-04T00:06:29.222Z,0
2017-10-04T00:07:28.594Z,0
2017-10-04T00:08:28.978Z,0
2017-10-04T00:09:28.936Z,0
2017-10-04T00:10:29.163Z,0
2017-10-04T00:11:28.825Z,0
2017-10-04T00:12:28.807Z,0
2017-10-04T00:13:28.795Z,0
2017-10-04T00:14:29.076Z,0
2017-10-04T00:15:29.040Z,0
2017-10-04T00:16:28.725Z,0
2017-10-04T00:17:28.706Z,0
2017-10-04T00:18:29.010Z,0
2017-10-04T00:19:28.979Z,0
2017-10-04T00:20:28.943Z,0
2017-10-04T00:21:28.653Z,0
2017-10-04T00:22:28.921Z,0
2017-10-04T00:23:28.591Z,0
2017-10-04T00:24:28.271Z,0
2017-10-04T00:25:28.247Z,0
2017-10-04T00:26:28.837Z,0
2017-10-04T00:27:28.832Z,0
2017-10-04T00:28:28.823Z,0
2017-10-04T00:29:28.561Z,0
2017-10-04T00:30:28.769Z,0
2017-10-04T00:31:28.762Z,0
2017-10-04T00:32:28.743Z,0
2017-10-04T00:33:28.722Z,0
2017-10-04T00:34:28.723Z,0
2017-10-04T00:35:28.682Z,0
2017-10-04T00:36:28.663Z,0
2017-10-04T00:37:28.328Z,0
2017-10-04T00:38:28.296Z,0
2017-10-04T00:39:27.665Z,0
2017-10-04T00:40:28.278Z,0
2017-10-04T00:41:28.336Z,0
2017-10-04T00:42:28.524Z,0
2017-10-04T00:43:28.506Z,0
2017-10-04T00:44:28.190Z,0
2017-10-04T00:45:28.173Z,0
2017-10-04T00:46:27.829Z,0
2017-10-04T00:47:28.483Z,0
2017-10-04T00:48:28.421Z,0
2017-10-04T00:49:28.400Z,0
2017-10-04T00:50:28.060Z,0
2017-10-04T00:51:28.355Z,0
2017-10-04T00:52:28.042Z,0
2017-10-04T00:53:27.721Z,0
2017-10-04T00:54:28.300Z,0
2017-10-04T00:55:28.279Z,0
2017-10-04T00:56:28.276Z,0
2017-10-04T00:57:28.252Z,0
2017-10-04T00:58:28.241Z,0
2017-10-04T00:59:27.650Z,0
2017-10-04T01:00:27.901Z,0
2017-10-04T01:01:27.610Z,0
2017-10-04T01:02:27.836Z,0
2017-10-04T01:03:28.130Z,0
2017-10-04T01:04:28.123Z,0
2017-10-04T01:05:27.771Z,0
2017-10-04T01:06:27.764Z,0
2017-10-04T01:07:27.425Z,0
2017-10-04T01:08:28.029Z,0
2017-10-04T01:09:28.022Z,0
2017-10-04T01:10:27.678Z,0
2017-10-04T01:11:27.425Z,0
2017-10-04T01:12:27.951Z,0
2017-10-04T01:13:27.643Z,0
2017-10-04T01:14:27.901Z,0
2017-10-04T01:15:27.902Z,0
2017-10-04T01:16:27.880Z,0
2017-10-04T01:17:27.844Z,0
2017-10-04T01:18:27.542Z,0
2017-10-04T01:19:27.531Z,0
2017-10-04T01:20:27.280Z,0
2017-10-04T01:21:27.791Z,0
2017-10-04T01:22:27.463Z,0
2017-10-04T01:23:27.740Z,0
2017-10-04T01:24:27.717Z,0
2017-10-04T01:25:27.392Z,0
2017-10-04T01:26:27.462Z,0
2017-10-04T01:27:27.681Z,0
2017-10-04T01:28:27.350Z,0
2017-10-04T01:29:27.618Z,0
2017-10-04T01:30:27.620Z,0
2017-10-04T01:31:27.600Z,0
2017-10-04T01:32:27.283Z,0
2017-10-04T01:33:27.011Z,0
2017-10-04T01:34:27.220Z,0
2017-10-04T01:35:26.890Z,0
2017-10-04T01:36:27.509Z,0
2017-10-04T01:37:27.481Z,0
2017-10-04T01:38:26.857Z,0
2017-10-04T01:39:27.431Z,0
2017-10-04T01:40:27.100Z,0
2017-10-04T01:41:27.432Z,0
2017-10-04T01:42:26.810Z,0
2017-10-04T01:43:27.380Z,0
2017-10-04T01:44:26.718Z,0
2017-10-04T01:45:27.318Z,0
2017-10-04T01:46:27.308Z,0
2017-10-04T01:47:26.660Z,0
2017-10-04T01:48:26.690Z,0
2017-10-04T01:49:26.941Z,0
2017-10-04T01:50:27.213Z,0
2017-10-04T01:51:26.894Z,0
2017-10-04T01:52:26.881Z,0
2017-10-04T01:53:26.545Z,0
2017-10-04T01:54:27.140Z,0
2017-10-04T01:55:26.521Z,0
2017-10-04T01:56:27.111Z,0
2017-10-04T01:57:26.481Z,0
2017-10-04T01:58:26.760Z,0
2017-10-04T01:59:26.731Z,0
2017-10-04T02:00:27.040Z,0
2017-10-04T02:01:26.720Z,0
2017-10-04T02:02:26.730Z,0
2017-10-04T02:03:26.048Z,0
2017-10-04T02:04:26.961Z,0
2017-10-04T02:05:26.320Z,0
2017-10-04T02:06:26.610Z,0
2017-10-04T02:07:26.910Z,0
2017-10-04T02:08:26.265Z,0
2017-10-04T02:09:26.548Z,0
2017-10-04T02:10:26.550Z,0
2017-10-04T02:11:26.520Z,0
2017-10-04T02:12:26.504Z,0
2017-10-04T02:13:26.790Z,0
2017-10-04T02:14:26.462Z,0
2017-10-04T02:15:26.451Z,0
2017-10-04T02:16:26.421Z,0
2017-10-04T02:17:26.413Z,0
2017-10-04T02:18:26.392Z,0
2017-10-04T02:19:26.671Z,0
2017-10-04T02:20:26.026Z,0
2017-10-04T02:21:26.363Z,0
2017-10-04T02:22:26.291Z,0
2017-10-04T02:23:26.276Z,0
2017-10-04T02:24:26.583Z,0
2017-10-04T02:25:26.541Z,0
2017-10-04T02:26:26.553Z,0
2017-10-04T02:27:26.508Z,0
2017-10-04T02:28:25.866Z,0
2017-10-04T02:29:26.164Z,0
2017-10-04T02:30:26.162Z,0
2017-10-04T02:31:26.152Z,0
2017-10-04T02:32:26.421Z,0
2017-10-04T02:33:26.103Z,0
2017-10-04T02:34:26.382Z,0
2017-10-04T02:35:25.742Z,0
2017-10-04T02:36:26.355Z,0
2017-10-04T02:37:26.021Z,0
2017-10-04T02:38:26.008Z,0
2017-10-04T02:39:26.283Z,0
2017-10-04T02:40:25.636Z,0
2017-10-04T02:41:26.251Z,0
2017-10-04T02:42:26.223Z,0
2017-10-04T02:43:25.890Z,0
2017-10-04T02:44:26.195Z,0
2017-10-04T02:45:26.166Z,0
2017-10-04T02:46:26.152Z,0
2017-10-04T02:47:25.841Z,0
2017-10-04T02:48:25.490Z,0
2017-10-04T02:49:26.082Z,0
2017-10-04T02:50:25.788Z,0
2017-10-04T02:51:25.136Z,0
2017-10-04T02:52:25.733Z,0
2017-10-04T02:53:25.458Z,0
2017-10-04T02:54:25.993Z,0
2017-10-04T02:55:25.452Z,0
2017-10-04T02:56:25.380Z,0
2017-10-04T02:57:25.941Z,0
2017-10-04T02:58:25.921Z,0
2017-10-04T02:59:25.635Z,0
2017-10-04T03:00:25.872Z,0
2017-10-04T03:01:25.870Z,0
2017-10-04T03:02:25.827Z,0
2017-10-04T03:03:25.828Z,0
2017-10-04T03:04:25.792Z,0
2017-10-04T03:05:25.466Z,0
2017-10-04T03:06:25.142Z,0
2017-10-04T03:07:25.132Z,0
2017-10-04T03:08:25.720Z,0
2017-10-04T03:09:25.734Z,0
2017-10-04T03:10:25.391Z,0
2017-10-04T03:11:25.372Z,0
2017-10-04T03:12:25.330Z,0
2017-10-04T03:13:24.999Z,0
2017-10-04T03:14:25.372Z,0
2017-10-04T03:15:25.300Z,0
2017-10-04T03:16:25.570Z,0
2017-10-04T03:17:24.611Z,0
2017-10-04T03:18:25.290Z,0
2017-10-04T03:19:25.201Z,0
2017-10-04T03:20:24.998Z,0
2017-10-04T03:21:25.191Z,0
2017-10-04T03:22:25.161Z,0
2017-10-04T03:23:25.145Z,0
2017-10-04T03:24:25.098Z,0
2017-10-04T03:25:24.461Z,0
2017-10-04T03:26:25.370Z,0
2017-10-04T03:27:25.077Z,0
2017-10-04T03:28:24.761Z,0
2017-10-04T03:29:25.311Z,0
2017-10-04T03:30:25.300Z,0
2017-10-04T03:31:24.982Z,0
2017-10-04T03:32:25.456Z,0
2017-10-04T03:33:24.931Z,0
2017-10-04T03:34:24.937Z,0
2017-10-04T03:35:24.570Z,0
2017-10-04T03:36:24.888Z,0
2017-10-04T03:37:24.552Z,0
2017-10-04T03:38:24.841Z,0
2017-10-04T03:39:24.820Z,0
2017-10-04T03:40:25.121Z,0
2017-10-04T03:41:25.092Z,0
2017-10-04T03:42:25.072Z,0
2017-10-04T03:43:24.754Z,0
2017-10-04T03:44:24.412Z,0
2017-10-04T03:45:24.393Z,0
2017-10-04T03:46:25.021Z,0
2017-10-04T03:47:24.740Z,0
2017-10-04T03:48:24.961Z,0
2017-10-04T03:49:24.625Z,0
2017-10-04T03:50:24.912Z,0
2017-10-04T03:51:24.268Z,0
2017-10-04T03:52:24.583Z,0
2017-10-04T03:53:24.238Z,0
2017-10-04T03:54:24.202Z,0
2017-10-04T03:55:24.511Z,0
2017-10-04T03:56:24.179Z,0
2017-10-04T03:57:24.168Z,0
2017-10-04T03:58:24.142Z,0
2017-10-04T03:59:24.110Z,0
2017-10-04T04:00:24.112Z,0
2017-10-04T04:01:24.077Z,0
2017-10-04T04:02:24.060Z,0
2017-10-04T04:03:24.340Z,0
2017-10-04T04:04:24.635Z,0
2017-10-04T04:05:24.693Z,0
2017-10-04T04:06:24.286Z,0
2017-10-04T04:07:24.591Z,0
2017-10-04T04:08:24.239Z,0
2017-10-04T04:09:24.020Z,0
2017-10-04T04:10:24.223Z,0
2017-10-04T04:11:24.212Z,0
2017-10-04T04:12:24.201Z,0
2017-10-04T04:13:24.172Z,0
2017-10-04T04:14:23.819Z,0
2017-10-04T04:15:24.115Z,0
2017-10-04T04:16:24.091Z,0
2017-10-04T04:17:24.081Z,0
2017-10-04T04:18:24.062Z,0
2017-10-04T04:19:24.032Z,0
2017-10-04T04:20:24.027Z,0
2017-10-04T04:21:24.313Z,0
2017-10-04T04:22:24.291Z,0
2017-10-04T04:23:23.963Z,0
2017-10-04T04:24:24.250Z,0
2017-10-04T04:25:23.922Z,0
2017-10-04T04:26:24.213Z,0
2017-10-04T04:27:23.880Z,0
2017-10-04T04:28:24.160Z,0
2017-10-04T04:29:23.853Z,0
2017-10-04T04:30:24.135Z,0
2017-10-04T04:31:23.801Z,0
2017-10-04T04:32:23.520Z,0
2017-10-04T04:33:24.122Z,0
2017-10-04T04:34:24.088Z,0
2017-10-04T04:35:23.720Z,0
2017-10-04T04:36:24.020Z,0
2017-10-04T04:37:24.013Z,0
2017-10-04T04:38:23.981Z,0
2017-10-04T04:39:23.961Z,0
2017-10-04T04:40:23.962Z,0
2017-10-04T04:41:23.936Z,0
2017-10-04T04:42:23.902Z,0
2017-10-04T04:43:23.622Z,0
2017-10-04T04:44:23.597Z,0
2017-10-04T04:45:23.554Z,0
2017-10-04T04:46:23.520Z,0
2017-10-04T04:47:23.517Z,0
2017-10-04T04:48:23.541Z,0
2017-10-04T04:49:23.469Z,0
2017-10-04T04:50:23.427Z,0
2017-10-04T04:51:23.729Z,0
2017-10-04T04:52:23.418Z,0
2017-10-04T04:53:23.063Z,0
2017-10-04T04:54:23.672Z,0
2017-10-04T04:55:23.890Z,0
2017-10-04T04:56:23.631Z,0
2017-10-04T04:57:22.681Z,0
2017-10-04T04:58:23.288Z,0
2017-10-04T04:59:23.262Z,0
2017-10-04T05:00:23.551Z,0
2017-10-04T05:01:23.303Z,0
2017-10-04T05:02:23.498Z,0
2017-10-04T05:03:23.259Z,0
2017-10-04T05:04:23.482Z,0
2017-10-04T05:05:23.461Z,0
2017-10-04T05:06:22.835Z,0
2017-10-04T05:07:23.099Z,0
2017-10-04T05:08:23.403Z,0
2017-10-04T05:09:23.101Z,4
2017-10-04T05:10:23.046Z,4
2017-10-04T05:11:22.725Z,0
2017-10-04T05:12:23.023Z,4
2017-10-04T05:13:22.994Z,4
2017-10-04T05:14:22.954Z,4
2017-10-04T05:15:23.260Z,8
2017-10-04T05:16:22.921Z,8
2017-10-04T05:17:23.221Z,8
2017-10-04T05:18:22.886Z,12
2017-10-04T05:19:23.184Z,16
2017-10-04T05:20:23.168Z,20
2017-10-04T05:21:22.831Z,24
2017-10-04T05:22:22.809Z,24
2017-10-04T05:23:23.110Z,24
2017-10-04T05:24:23.073Z,24
2017-10-04T05:25:22.768Z,24
2017-10-04T05:26:22.749Z,24
2017-10-04T05:27:23.031Z,28
2017-10-04T05:28:23.241Z,28
2017-10-04T05:29:23.228Z,32
2017-10-04T05:30:22.353Z,36
2017-10-04T05:31:22.953Z,40
2017-10-04T05:32:22.309Z,40
2017-10-04T05:33:22.613Z,40
2017-10-04T05:34:22.266Z,44
2017-10-04T05:35:22.564Z,48
2017-10-04T05:36:22.548Z,48
2017-10-04T05:37:22.215Z,52
2017-10-04T05:38:22.187Z,56
2017-10-04T05:39:22.195Z,64
2017-10-04T05:40:22.766Z,76
2017-10-04T05:41:22.449Z,92
2017-10-04T05:42:22.731Z,108
2017-10-04T05:43:22.410Z,132
2017-10-04T05:44:22.721Z,164
2017-10-04T05:45:22.465Z,168
2017-10-04T05:46:22.649Z,168
2017-10-04T05:47:22.641Z,188
2017-10-04T05:48:22.308Z,204
2017-10-04T05:49:22.609Z,212
2017-10-04T05:50:21.958Z,220
2017-10-04T05:51:22.238Z,228
2017-10-04T05:52:21.600Z,248
2017-10-04T05:53:22.206Z,284
2017-10-04T05:54:22.209Z,336
2017-10-04T05:55:22.178Z,396
2017-10-04T05:56:22.147Z,444
2017-10-04T05:57:22.139Z,496
2017-10-04T05:58:22.108Z,544
2017-10-04T05:59:22.385Z,584
2017-10-04T06:00:22.077Z,632
2017-10-04T06:01:22.379Z,672
2017-10-04T06:02:21.726Z,720
2017-10-04T06:03:21.702Z,800
2017-10-04T06:04:22.002Z,892
2017-10-04T06:05:22.062Z,992
2017-10-04T06:06:22.008Z,1112
2017-10-04T06:07:22.249Z,1216
2017-10-04T06:08:22.323Z,1304
2017-10-04T06:09:21.801Z,1392
2017-10-04T06:10:22.196Z,1472
2017-10-04T06:11:21.865Z,1540
2017-10-04T06:12:21.529Z,1616
2017-10-04T06:13:21.935Z,1712
2017-10-04T06:14:21.808Z,1808
2017-10-04T06:15:21.778Z,1916
2017-10-04T06:16:21.770Z,2036
2017-10-04T06:17:21.729Z,2176
2017-10-04T06:18:22.031Z,2328
2017-10-04T06:19:21.516Z,2496
2017-10-04T06:20:22.008Z,2664
2017-10-04T06:21:21.657Z,2852
2017-10-04T06:22:21.681Z,3076
2017-10-04T06:23:21.659Z,3332
2017-10-04T06:24:20.975Z,3952
2017-10-04T06:25:21.662Z,5648
2017-10-04T06:26:21.872Z,7848
2017-10-04T06:27:21.564Z,9500
2017-10-04T06:28:21.544Z,10348
2017-10-04T06:29:21.625Z,14848
2017-10-04T06:30:21.818Z,12344
2017-10-04T06:31:21.789Z,14240
2017-10-04T06:32:21.786Z,15072
2017-10-04T06:33:21.738Z,15424
2017-10-04T06:34:21.503Z,7932
2017-10-04T06:35:21.513Z,5184
2017-10-04T06:36:21.117Z,4936
2017-10-04T06:37:21.363Z,5284
2017-10-04T06:38:21.636Z,5568
2017-10-04T06:39:21.360Z,5640
2017-10-04T06:40:21.341Z,5444
2017-10-04T06:41:21.611Z,5504
2017-10-04T06:42:21.592Z,5772
2017-10-04T06:43:20.921Z,5708
2017-10-04T06:44:21.557Z,6064
2017-10-04T06:45:21.530Z,7136
2017-10-04T06:46:21.506Z,8208
2017-10-04T06:47:21.500Z,6856
2017-10-04T06:48:21.499Z,6916
2017-10-04T06:49:21.483Z,7424
2017-10-04T06:50:21.430Z,7808
2017-10-04T06:51:21.109Z,10068
2017-10-04T06:52:21.389Z,10292
2017-10-04T06:53:21.370Z,13500
2017-10-04T06:54:21.361Z,14324
2017-10-04T06:55:21.059Z,14912
2017-10-04T06:56:21.018Z,17984
2017-10-04T06:57:21.297Z,16576
2017-10-04T06:58:21.323Z,19584
2017-10-04T06:59:20.964Z,22336
2017-10-04T07:00:20.618Z,22848
2017-10-04T07:01:20.921Z,20544
2017-10-04T07:02:20.904Z,22880
2017-10-04T07:03:21.210Z,23328
2017-10-04T07:04:21.184Z,22304
2017-10-04T07:05:21.157Z,22528
2017-10-04T07:06:20.818Z,10556
2017-10-04T07:07:21.139Z,8188
2017-10-04T07:08:21.094Z,4508
2017-10-04T07:09:21.090Z,4224
2017-10-04T07:10:20.759Z,3684
2017-10-04T07:11:21.060Z,3912
2017-10-04T07:12:20.728Z,4072
2017-10-04T07:13:20.390Z,3764
2017-10-04T07:14:20.385Z,4840
2017-10-04T07:15:20.669Z,3852
2017-10-04T07:16:20.958Z,3532
2017-10-04T07:17:20.615Z,3924
2017-10-04T07:18:20.305Z,3012
2017-10-04T07:19:20.888Z,2844
2017-10-04T07:20:20.585Z,3204
2017-10-04T07:21:20.262Z,3724
2017-10-04T07:22:20.843Z,4476
2017-10-04T07:23:20.837Z,4096
2017-10-04T07:24:20.828Z,4836
2017-10-04T07:25:20.508Z,4200
2017-10-04T07:26:19.847Z,4864
2017-10-04T07:27:20.496Z,4440
2017-10-04T07:28:20.433Z,5540
2017-10-04T07:29:20.411Z,5180
2017-10-04T07:30:20.403Z,4604
2017-10-04T07:31:20.525Z,4404
2017-10-04T07:32:20.662Z,4308
2017-10-04T07:33:20.378Z,4564
2017-10-04T07:34:20.317Z,5760
2017-10-04T07:35:20.314Z,6028
2017-10-04T07:36:20.342Z,5484
2017-10-04T07:37:20.266Z,5000
2017-10-04T07:38:20.559Z,5560
2017-10-04T07:39:20.261Z,4928
2017-10-04T07:40:20.519Z,4536
2017-10-04T07:41:20.518Z,3984
2017-10-04T07:42:20.242Z,3476
2017-10-04T07:43:20.465Z,3240
2017-10-04T07:44:19.518Z,3064
2017-10-04T07:45:20.156Z,2944
2017-10-04T07:46:20.428Z,2876
2017-10-04T07:47:19.782Z,2812
2017-10-04T07:48:20.378Z,2748
2017-10-04T07:49:20.069Z,2680
2017-10-04T07:50:20.178Z,2612
2017-10-04T07:51:20.330Z,2572
2017-10-04T07:52:20.001Z,2588
2017-10-04T07:53:20.289Z,2624
2017-10-04T07:54:20.268Z,2676
2017-10-04T07:55:19.936Z,2704
2017-10-04T07:56:20.259Z,2708
2017-10-04T07:57:19.906Z,2708
2017-10-04T07:58:20.190Z,2684
2017-10-04T07:59:19.570Z,2624
2017-10-04T08:00:20.150Z,2688
2017-10-04T08:01:20.169Z,2736
2017-10-04T08:02:19.839Z,2800
2017-10-04T08:03:19.483Z,2844
2017-10-04T08:04:19.802Z,2772
2017-10-04T08:05:19.125Z,2924
2017-10-04T08:06:20.037Z,3280
2017-10-04T08:07:19.411Z,3416
2017-10-04T08:08:20.011Z,3544
2017-10-04T08:09:19.386Z,3664
2017-10-04T08:10:19.988Z,3804
2017-10-04T08:11:19.329Z,3808
2017-10-04T08:12:19.640Z,3616
2017-10-04T08:13:19.610Z,3976
2017-10-04T08:14:19.581Z,3528
2017-10-04T08:15:19.653Z,3228
2017-10-04T08:16:19.557Z,3096
2017-10-04T08:17:19.222Z,3020
2017-10-04T08:18:19.539Z,3128
2017-10-04T08:19:19.629Z,3316
2017-10-04T08:20:19.472Z,3492
2017-10-04T08:21:19.772Z,3680
2017-10-04T08:22:19.773Z,3888
2017-10-04T08:23:19.431Z,4168
2017-10-04T08:24:19.389Z,4516
2017-10-04T08:25:19.429Z,4824
2017-10-04T08:26:19.679Z,4848
2017-10-04T08:27:19.398Z,4972
2017-10-04T08:28:19.318Z,5740
2017-10-04T08:29:19.378Z,5584
2017-10-04T08:30:19.268Z,6020
2017-10-04T08:31:19.331Z,4480
2017-10-04T08:32:19.248Z,4380
2017-10-04T08:33:19.547Z,4620
2017-10-04T08:34:19.212Z,5780
2017-10-04T08:35:19.622Z,5112
2017-10-04T08:36:19.184Z,5556
2017-10-04T08:37:19.227Z,6104
2017-10-04T08:38:19.146Z,8728
2017-10-04T08:39:19.117Z,18048
2017-10-04T08:40:19.441Z,18368
2017-10-04T08:41:19.409Z,15808
2017-10-04T08:42:19.382Z,17536
2017-10-04T08:43:19.354Z,13048
2017-10-04T08:44:19.354Z,23936
2017-10-04T08:45:19.348Z,24832
2017-10-04T08:46:19.308Z,21408
2017-10-04T08:47:19.311Z,21088
2017-10-04T08:48:19.281Z,16576
2017-10-04T08:49:19.278Z,9492
2017-10-04T08:50:19.253Z,6204
2017-10-04T08:51:18.606Z,6132
2017-10-04T08:52:18.590Z,7020
2017-10-04T08:53:19.006Z,7536
2017-10-04T08:54:19.251Z,8108
2017-10-04T08:55:19.289Z,9024
2017-10-04T08:56:19.142Z,7592
2017-10-04T08:57:19.137Z,6412
2017-10-04T08:58:19.096Z,5436
2017-10-04T08:59:18.468Z,5476
2017-10-04T09:00:18.447Z,7104
2017-10-04T09:01:18.751Z,23264
2017-10-04T09:02:18.728Z,19104
2017-10-04T09:03:19.172Z,18656
2017-10-04T09:04:18.372Z,12840
2017-10-04T09:05:18.682Z,9840
2017-10-04T09:06:18.982Z,8732
2017-10-04T09:07:19.064Z,9320
2017-10-04T09:08:18.942Z,11092
2017-10-04T09:09:18.912Z,6984
2017-10-04T09:10:18.587Z,5048
2017-10-04T09:11:18.605Z,4528
2017-10-04T09:12:18.883Z,4312
2017-10-04T09:13:18.983Z,3476
2017-10-04T09:14:18.843Z,2780
2017-10-04T09:15:18.532Z,2580
2017-10-04T09:16:18.502Z,2384
2017-10-04T09:17:18.487Z,2292
2017-10-04T09:18:18.830Z,2416
2017-10-04T09:19:18.128Z,2536
2017-10-04T09:20:18.438Z,2476
2017-10-04T09:21:18.720Z,2176
2017-10-04T09:22:18.066Z,2068
2017-10-04T09:23:18.060Z,1740
2017-10-04T09:24:18.665Z,1452
2017-10-04T09:25:18.741Z,1452
2017-10-04T09:26:17.991Z,1368
2017-10-04T09:27:18.619Z,1256
2017-10-04T09:28:18.281Z,1348
2017-10-04T09:29:18.051Z,1640
2017-10-04T09:30:18.651Z,1824
2017-10-04T09:31:18.220Z,2056
2017-10-04T09:32:18.561Z,2164
2017-10-04T09:33:18.260Z,2408
2017-10-04T09:34:18.476Z,2724
2017-10-04T09:35:17.900Z,3052
2017-10-04T09:36:17.852Z,3584
2017-10-04T09:37:18.523Z,4096
2017-10-04T09:38:18.476Z,4620
2017-10-04T09:39:18.091Z,4708
2017-10-04T09:40:17.737Z,4256
2017-10-04T09:41:18.444Z,3820
2017-10-04T09:42:18.410Z,3692
2017-10-04T09:43:17.699Z,3880
2017-10-04T09:44:17.996Z,4480
2017-10-04T09:45:18.011Z,4496
2017-10-04T09:46:18.345Z,4380
2017-10-04T09:47:18.261Z,4640
2017-10-04T09:48:17.621Z,5184
2017-10-04T09:49:17.985Z,5992
2017-10-04T09:50:18.240Z,6940
2017-10-04T09:51:18.222Z,6512
2017-10-04T09:52:18.183Z,6340
2017-10-04T09:53:18.183Z,6072
2017-10-04T09:54:17.920Z,5776
2017-10-04T09:55:18.170Z,5460
2017-10-04T09:56:17.801Z,5216
2017-10-04T09:57:18.112Z,5064
2017-10-04T09:58:18.089Z,5072
2017-10-04T09:59:18.054Z,5244
2017-10-04T10:00:18.034Z,5588
2017-10-04T10:01:18.032Z,5860
2017-10-04T10:02:17.671Z,5824
2017-10-04T10:03:17.650Z,6076
2017-10-04T10:04:17.959Z,5772
2017-10-04T10:05:17.961Z,5060
2017-10-04T10:06:17.987Z,4452
2017-10-04T10:07:17.268Z,3848
2017-10-04T10:08:17.908Z,3712
2017-10-04T10:09:17.610Z,3596
2017-10-04T10:10:17.530Z,3404
2017-10-04T10:11:17.840Z,3184
2017-10-04T10:12:17.913Z,2840
2017-10-04T10:13:17.186Z,2588
2017-10-04T10:14:17.461Z,2372
2017-10-04T10:15:17.752Z,2076
2017-10-04T10:16:17.741Z,1976
2017-10-04T10:17:17.411Z,1824
2017-10-04T10:18:17.403Z,1840
2017-10-04T10:19:16.755Z,1828
2017-10-04T10:20:17.042Z,1844
2017-10-04T10:21:17.349Z,2164
2017-10-04T10:22:17.621Z,2432
2017-10-04T10:23:17.301Z,2784
2017-10-04T10:24:17.603Z,3316
2017-10-04T10:25:16.951Z,3552
2017-10-04T10:26:16.949Z,3568
2017-10-04T10:27:17.546Z,3432
2017-10-04T10:28:17.221Z,3532
2017-10-04T10:29:17.549Z,3988
2017-10-04T10:30:17.160Z,4416
2017-10-04T10:31:17.494Z,4132
2017-10-04T10:32:17.131Z,3904
2017-10-04T10:33:16.816Z,4536
2017-10-04T10:34:17.102Z,4972
2017-10-04T10:35:17.133Z,5408
2017-10-04T10:36:17.428Z,5724
2017-10-04T10:37:17.041Z,4464
2017-10-04T10:38:16.718Z,3428
2017-10-04T10:39:17.083Z,3776
2017-10-04T10:40:16.691Z,3404
2017-10-04T10:41:16.974Z,3756
2017-10-04T10:42:16.982Z,3644
2017-10-04T10:43:16.958Z,3124
2017-10-04T10:44:17.222Z,2972
2017-10-04T10:45:16.957Z,3200
2017-10-04T10:46:16.874Z,2392
2017-10-04T10:47:17.182Z,1744
2017-10-04T10:48:16.845Z,1924
2017-10-04T10:49:16.843Z,2564
2017-10-04T10:50:16.860Z,3192
2017-10-04T10:51:16.814Z,4916
2017-10-04T10:52:17.090Z,6624
2017-10-04T10:53:16.752Z,9940
2017-10-04T10:54:17.072Z,11036
2017-10-04T10:55:16.735Z,7840
2017-10-04T10:56:17.013Z,7556
2017-10-04T10:57:17.001Z,7128
2017-10-04T10:58:17.054Z,6784
2017-10-04T10:59:16.671Z,8448
2017-10-04T11:00:16.995Z,7760
2017-10-04T11:01:16.972Z,6500
2017-10-04T11:02:16.996Z,5432
2017-10-04T11:03:16.260Z,5932
2017-10-04T11:04:16.951Z,5040
2017-10-04T11:05:16.865Z,4192
2017-10-04T11:06:16.863Z,3136
2017-10-04T11:07:16.510Z,3896
2017-10-04T11:08:16.833Z,5096
2017-10-04T11:09:16.807Z,5580
2017-10-04T11:10:16.449Z,4544
2017-10-04T11:11:16.771Z,3480
2017-10-04T11:12:16.770Z,4532
2017-10-04T11:13:16.758Z,4472
2017-10-04T11:14:16.392Z,3872
2017-10-04T11:15:16.381Z,3760
2017-10-04T11:16:16.362Z,4372
2017-10-04T11:17:16.653Z,4828
2017-10-04T11:18:16.636Z,5676
2017-10-04T11:19:16.675Z,7408
2017-10-04T11:20:16.283Z,9524
2017-10-04T11:21:16.248Z,10444
2017-10-04T11:22:16.234Z,10200
2017-10-04T11:23:16.253Z,9540
2017-10-04T11:24:16.208Z,7752
2017-10-04T11:25:16.203Z,6868
2017-10-04T11:26:16.473Z,6768
2017-10-04T11:27:16.493Z,6060
2017-10-04T11:28:16.212Z,6044
2017-10-04T11:29:16.429Z,5668
2017-10-04T11:30:16.426Z,5852
2017-10-04T11:31:16.412Z,6836
2017-10-04T11:32:16.083Z,7096
2017-10-04T11:33:16.072Z,6812
2017-10-04T11:34:16.371Z,6844
2017-10-04T11:35:16.365Z,6840
2017-10-04T11:36:16.365Z,6820
2017-10-04T11:37:16.313Z,6712
2017-10-04T11:38:15.971Z,6468
2017-10-04T11:39:16.270Z,6348
2017-10-04T11:40:16.263Z,6404
2017-10-04T11:41:15.613Z,6316
2017-10-04T11:42:15.583Z,5860
2017-10-04T11:43:15.902Z,5432
2017-10-04T11:44:15.874Z,5748
2017-10-04T11:45:16.152Z,6216
2017-10-04T11:46:15.829Z,6176
2017-10-04T11:47:15.801Z,6064
2017-10-04T11:48:15.810Z,6360
2017-10-04T11:49:16.082Z,6396
2017-10-04T11:50:15.762Z,6176
2017-10-04T11:51:15.767Z,5616
2017-10-04T11:52:15.742Z,5220
2017-10-04T11:53:16.012Z,5140
2017-10-04T11:54:15.987Z,4984
2017-10-04T11:55:15.993Z,4772
2017-10-04T11:56:15.685Z,4644
2017-10-04T11:57:15.945Z,4720
2017-10-04T11:58:15.297Z,4440
2017-10-04T11:59:15.623Z,4100
2017-10-04T12:00:15.922Z,3864
2017-10-04T12:01:15.882Z,3620
2017-10-04T12:02:15.874Z,3320
2017-10-04T12:03:15.866Z,2884
2017-10-04T12:04:15.824Z,3124
2017-10-04T12:05:15.812Z,3216
2017-10-04T12:06:15.800Z,2924
2017-10-04T12:07:15.806Z,2732
2017-10-04T12:08:15.473Z,2524
2017-10-04T12:09:15.763Z,2132
2017-10-04T12:10:15.512Z,2016
2017-10-04T12:11:15.425Z,2024
2017-10-04T12:12:15.713Z,1836
2017-10-04T12:13:15.363Z,1756
2017-10-04T12:14:15.355Z,2024
2017-10-04T12:15:15.634Z,2216
2017-10-04T12:16:15.300Z,1920
2017-10-04T12:17:15.601Z,1796
2017-10-04T12:18:15.585Z,1792
2017-10-04T12:19:15.562Z,1596
2017-10-04T12:20:15.273Z,1568
2017-10-04T12:21:15.524Z,1700
2017-10-04T12:22:15.525Z,1920
2017-10-04T12:23:15.191Z,1904
2017-10-04T12:24:15.273Z,1772
2017-10-04T12:25:15.452Z,1768
2017-10-04T12:26:15.443Z,1904
2017-10-04T12:27:15.103Z,2284
2017-10-04T12:28:15.111Z,2684
2017-10-04T12:29:15.083Z,2712
2017-10-04T12:30:15.058Z,2820
2017-10-04T12:31:15.045Z,2776
2017-10-04T12:32:15.332Z,3044
2017-10-04T12:33:15.008Z,3080
2017-10-04T12:34:15.292Z,2944
2017-10-04T12:35:14.990Z,2808
2017-10-04T12:36:14.962Z,2592
2017-10-04T12:37:15.260Z,2584
2017-10-04T12:38:15.240Z,2520
2017-10-04T12:39:15.213Z,2396
2017-10-04T12:40:15.203Z,2460
2017-10-04T12:41:15.204Z,2652
2017-10-04T12:42:14.861Z,2856
2017-10-04T12:43:15.155Z,2964
2017-10-04T12:44:15.109Z,3296
2017-10-04T12:45:15.102Z,3448
2017-10-04T12:46:14.792Z,3280
2017-10-04T12:47:15.076Z,3112
2017-10-04T12:48:14.833Z,2824
2017-10-04T12:49:15.039Z,2416
2017-10-04T12:50:15.022Z,2624
2017-10-04T12:51:14.690Z,2744
2017-10-04T12:52:14.684Z,2932
2017-10-04T12:53:14.961Z,2728
2017-10-04T12:54:14.641Z,2340
2017-10-04T12:55:14.630Z,2428
2017-10-04T12:56:14.919Z,2600
2017-10-04T12:57:14.322Z,2556
2017-10-04T12:58:14.562Z,2416
2017-10-04T12:59:14.852Z,2476
2017-10-04T13:00:14.843Z,2744
2017-10-04T13:01:14.205Z,2904
2017-10-04T13:02:14.513Z,3000
2017-10-04T13:03:14.485Z,3112
2017-10-04T13:04:14.504Z,3228
2017-10-04T13:05:14.436Z,3236
2017-10-04T13:06:14.121Z,3112
2017-10-04T13:07:14.447Z,3120
2017-10-04T13:08:14.485Z,2848
2017-10-04T13:09:14.697Z,2680
2017-10-04T13:10:14.342Z,2832
2017-10-04T13:11:14.653Z,2684
2017-10-04T13:12:14.629Z,2772
2017-10-04T13:13:14.611Z,2748
2017-10-04T13:14:14.292Z,2760
2017-10-04T13:15:14.601Z,2700
2017-10-04T13:16:14.562Z,2408
2017-10-04T13:17:14.252Z,2200
2017-10-04T13:18:14.514Z,2000
2017-10-04T13:19:14.524Z,1856
2017-10-04T13:20:14.503Z,2104
2017-10-04T13:21:14.474Z,2200
2017-10-04T13:22:14.541Z,2512
2017-10-04T13:23:14.443Z,2444
2017-10-04T13:24:14.433Z,2256
2017-10-04T13:25:14.395Z,2160
2017-10-04T13:26:14.413Z,2380
2017-10-04T13:27:14.072Z,2164
2017-10-04T13:28:14.357Z,1952
2017-10-04T13:29:13.704Z,1988
2017-10-04T13:30:14.062Z,2136
2017-10-04T13:31:14.306Z,2292
2017-10-04T13:32:14.316Z,2432
2017-10-04T13:33:14.267Z,2628
2017-10-04T13:34:14.246Z,2844
2017-10-04T13:35:14.217Z,3012
2017-10-04T13:36:14.194Z,3188
2017-10-04T13:37:14.185Z,3328
2017-10-04T13:38:14.166Z,3220
2017-10-04T13:39:13.845Z,2968
2017-10-04T13:40:14.191Z,2572
2017-10-04T13:41:14.111Z,2472
2017-10-04T13:42:14.102Z,2484
2017-10-04T13:43:13.777Z,2420
2017-10-04T13:44:13.732Z,2052
2017-10-04T13:45:14.042Z,1744
2017-10-04T13:46:13.775Z,1560
2017-10-04T13:47:13.887Z,1476
2017-10-04T13:48:14.078Z,1464
2017-10-04T13:49:13.966Z,1452
2017-10-04T13:50:13.966Z,1384
2017-10-04T13:51:13.947Z,1540